KFFA/FFA METAR and TAF weather

Enter ICAO airport designator
Station Type Date Time Source
KFFA METAR 2020/01/23 18:35 UTC NOAA

KFFA 231835Z AUTO 36007KT 10SM SCT050 OVC060 10/07 A3027 RMK AO2 T00990074


Station Type Date Time Source
KFFA Decoded METAR 2020/01/23 18:35 UTC NOAA

Kill Devil Hills, First Flight Airport, NC, United States (KFFA) 36-01N 075-40W
Jan 23, 2020 - 01:35 PM EST / 2020.01.23 1835 UTC
Wind: from the N (360 degrees) at 8 MPH (7 KT):0
Visibility: 10 mile(s):0
Sky conditions: overcast
Temperature: 49.8 F (9.9 C)
Dew Point: 45.3 F (7.4 C)
Relative Humidity: 84%
Pressure (altimeter): 30.27 in. Hg (1025 hPa)
ob: KFFA 231835Z AUTO 36007KT 10SM SCT050 OVC060 10/07 A3027 RMK AO2 T00990074
cycle: 18

Station Type Date Time Source
KFFA TAF UTC NOAA

Error!

Example: see airport list